createdAt,value
2022-10-20T00:02:18.000Z,6.6
2022-10-20T00:05:50.000Z,6.4
2022-10-20T00:09:23.000Z,7
2022-10-20T00:12:56.000Z,6.2
2022-10-20T00:16:28.000Z,6.4
2022-10-20T00:19:19.000Z,7.5
2022-10-20T00:22:52.000Z,7
2022-10-20T00:26:24.000Z,7.6
2022-10-20T00:29:57.000Z,7.4
2022-10-20T00:33:30.000Z,7.9
2022-10-20T00:37:03.000Z,7.6
2022-10-20T00:40:35.000Z,7.8
2022-10-20T00:44:08.000Z,7.9
2022-10-20T00:47:40.000Z,6.3
2022-10-20T00:51:13.000Z,7.4
2022-10-20T00:54:46.000Z,6.6
2022-10-20T00:57:37.000Z,7.9
2022-10-20T01:01:10.000Z,7.6
2022-10-20T01:04:43.000Z,7.8
2022-10-20T01:08:15.000Z,8.2
2022-10-20T01:11:48.000Z,8.6
2022-10-20T01:15:20.000Z,8.8
2022-10-20T01:18:53.000Z,9.1
2022-10-20T01:22:26.000Z,8.6
2022-10-20T01:25:58.000Z,10.2
2022-10-20T01:29:32.000Z,8.1
2022-10-20T01:33:04.000Z,7.4
2022-10-20T01:35:55.000Z,13.1
2022-10-20T01:39:47.000Z,12.8
2022-10-20T01:43:20.000Z,12.6
2022-10-20T01:46:52.000Z,12.2
2022-10-20T01:50:25.000Z,11.7
2022-10-20T01:53:58.000Z,9.9
2022-10-20T01:57:30.000Z,10.3
2022-10-20T02:01:03.000Z,9.2
2022-10-20T02:04:36.000Z,9.4
2022-10-20T02:08:09.000Z,8.1
2022-10-20T02:11:42.000Z,8.1
2022-10-20T02:14:33.000Z,8.4
2022-10-20T02:18:05.000Z,9.3
2022-10-20T02:21:38.000Z,9.3
2022-10-20T02:25:11.000Z,9.6
2022-10-20T02:28:43.000Z,8.3
2022-10-20T02:32:16.000Z,8.8
2022-10-20T02:35:48.000Z,9.1
2022-10-20T02:39:21.000Z,8.4
2022-10-20T02:42:54.000Z,9
2022-10-20T02:46:26.000Z,8.3
2022-10-20T02:49:59.000Z,7.1
2022-10-20T02:52:50.000Z,9
2022-10-20T02:56:23.000Z,7.4
2022-10-20T02:59:56.000Z,8.9
2022-10-20T03:03:29.000Z,9.4
2022-10-20T03:07:01.000Z,8.7
2022-10-20T03:10:34.000Z,7.2
2022-10-20T03:14:06.000Z,7
2022-10-20T03:17:39.000Z,8.3
2022-10-20T03:21:12.000Z,7.8
2022-10-20T03:24:44.000Z,7.5
2022-10-20T03:28:17.000Z,7.2
2022-10-20T03:31:08.000Z,7.2
2022-10-20T03:34:41.000Z,6.7
2022-10-20T03:38:13.000Z,6.5
2022-10-20T03:41:46.000Z,6.2
2022-10-20T03:45:18.000Z,6.4
2022-10-20T03:48:51.000Z,6.1
2022-10-20T03:52:23.000Z,6.9
2022-10-20T03:55:56.000Z,5.8
2022-10-20T03:59:29.000Z,6.3
2022-10-20T04:03:01.000Z,6.4
2022-10-20T04:06:34.000Z,6.4
2022-10-20T04:09:25.000Z,6.5
2022-10-20T04:12:57.000Z,6.2
2022-10-20T04:16:30.000Z,6.9
2022-10-20T04:20:03.000Z,7.2
2022-10-20T04:23:35.000Z,5.9
2022-10-20T04:27:08.000Z,5.8
2022-10-20T04:30:41.000Z,6.8
2022-10-20T04:34:13.000Z,5.8
2022-10-20T04:37:46.000Z,5.5
2022-10-20T04:41:19.000Z,5.6
2022-10-20T04:44:51.000Z,5.9
2022-10-20T04:47:43.000Z,5.8
2022-10-20T04:51:15.000Z,5.5
2022-10-20T04:54:48.000Z,4.7
2022-10-20T04:58:20.000Z,4.6
2022-10-20T05:01:53.000Z,4.9
2022-10-20T05:05:26.000Z,5.6
2022-10-20T05:08:58.000Z,5.5
2022-10-20T05:12:35.000Z,6.2
2022-10-20T05:16:07.000Z,6.7
2022-10-20T05:19:40.000Z,5.6
2022-10-20T05:23:13.000Z,5.3
2022-10-20T05:26:04.000Z,6.2
2022-10-20T05:29:36.000Z,5.2
2022-10-20T05:33:09.000Z,5.5
2022-10-20T05:36:42.000Z,5.6
2022-10-20T05:40:14.000Z,5
2022-10-20T05:43:47.000Z,5.9
2022-10-20T05:47:19.000Z,6.6
2022-10-20T05:50:52.000Z,6.4
2022-10-20T05:54:25.000Z,6.5
2022-10-20T05:57:57.000Z,6.4
2022-10-20T06:01:30.000Z,6.9
2022-10-20T06:04:21.000Z,6.6
2022-10-20T06:07:53.000Z,6.8
2022-10-20T06:11:26.000Z,6.7
2022-10-20T06:15:04.000Z,5.9
2022-10-20T06:18:37.000Z,6.2
2022-10-20T06:22:09.000Z,6.5
2022-10-20T06:25:42.000Z,6.9
2022-10-20T06:29:15.000Z,6.1
2022-10-20T06:32:47.000Z,5
2022-10-20T06:36:20.000Z,6.3
2022-10-20T06:39:53.000Z,6.5
2022-10-20T06:42:44.000Z,6.9
2022-10-20T06:46:17.000Z,7.2
2022-10-20T06:49:49.000Z,6.8
2022-10-20T06:53:22.000Z,7
2022-10-20T06:56:55.000Z,6.7
2022-10-20T07:00:27.000Z,6.8
2022-10-20T07:04:00.000Z,6.4
2022-10-20T07:07:33.000Z,6.9
2022-10-20T07:11:05.000Z,6.7
2022-10-20T07:14:38.000Z,6.5
2022-10-20T07:18:11.000Z,6
2022-10-20T07:21:02.000Z,6.3
2022-10-20T07:24:34.000Z,6.2
2022-10-20T07:28:07.000Z,7.7
2022-10-20T07:31:40.000Z,6.5
2022-10-20T07:35:12.000Z,5.7
2022-10-20T07:38:45.000Z,7
2022-10-20T07:42:18.000Z,8.8
2022-10-20T07:45:50.000Z,9.1
2022-10-20T07:49:23.000Z,8.2
2022-10-20T07:53:10.000Z,7.5
2022-10-20T07:56:43.000Z,8.8
2022-10-20T07:59:34.000Z,8.8
2022-10-20T08:03:07.000Z,8.3
2022-10-20T08:06:39.000Z,8.5
2022-10-20T08:10:12.000Z,8.4
2022-10-20T08:13:44.000Z,10.8
2022-10-20T08:17:17.000Z,8.5
2022-10-20T08:20:52.000Z,8.6
2022-10-20T08:24:24.000Z,10.4
2022-10-20T08:27:57.000Z,11.3
2022-10-20T08:31:30.000Z,12.4
2022-10-20T08:35:02.000Z,11.2
2022-10-20T08:37:54.000Z,12.3
2022-10-20T08:41:26.000Z,9.5
2022-10-20T08:45:20.000Z,13.1
2022-10-20T08:48:52.000Z,9.8
2022-10-20T08:52:25.000Z,10.9
2022-10-20T08:55:57.000Z,13.1
2022-10-20T08:59:34.000Z,12.5
2022-10-20T09:03:07.000Z,12.1
2022-10-20T09:06:40.000Z,11.6
2022-10-20T09:10:12.000Z,11.7
2022-10-20T09:13:45.000Z,10.8
2022-10-20T09:16:36.000Z,11.5
2022-10-20T09:20:25.000Z,10.9
2022-10-20T09:23:57.000Z,11.5
2022-10-20T09:27:30.000Z,14.1
2022-10-20T09:31:12.000Z,12.5
2022-10-20T09:34:46.000Z,12.1
2022-10-20T09:38:19.000Z,12.8
2022-10-20T09:45:28.000Z,12.2
2022-10-20T09:49:00.000Z,14.5
2022-10-20T09:52:33.000Z,15.4
2022-10-20T09:55:24.000Z,12.8
2022-10-20T09:58:57.000Z,13.2
2022-10-20T10:02:36.000Z,13.9
2022-10-20T10:06:09.000Z,12.5
2022-10-20T10:09:42.000Z,11.4
2022-10-20T10:13:15.000Z,13.6
2022-10-20T10:16:50.000Z,14.2
2022-10-20T10:20:23.000Z,13
2022-10-20T10:23:55.000Z,13.5
2022-10-20T10:27:28.000Z,12.6
2022-10-20T10:31:00.000Z,11.8
2022-10-20T10:33:51.000Z,11.5
2022-10-20T10:37:24.000Z,12.9
2022-10-20T10:41:00.000Z,12.2
2022-10-20T10:44:33.000Z,12.4
2022-10-20T10:48:06.000Z,11.2
2022-10-20T10:51:38.000Z,11.4
2022-10-20T10:55:11.000Z,10.5
2022-10-20T10:59:13.000Z,10.8
2022-10-20T11:02:46.000Z,10.1
2022-10-20T11:06:18.000Z,10.5
2022-10-20T11:09:51.000Z,10.1
2022-10-20T11:12:43.000Z,10.6
2022-10-20T11:16:15.000Z,10
2022-10-20T11:19:48.000Z,9.8
2022-10-20T11:23:20.000Z,9.9
2022-10-20T11:26:53.000Z,10.6
2022-10-20T11:30:25.000Z,10.1
2022-10-20T11:33:58.000Z,10.8
2022-10-20T11:37:31.000Z,11.1
2022-10-20T11:41:04.000Z,10.4
2022-10-20T11:44:37.000Z,11.5
2022-10-20T11:48:10.000Z,9.8
2022-10-20T11:51:01.000Z,10
2022-10-20T11:54:34.000Z,10.6
2022-10-20T11:58:06.000Z,9
2022-10-20T12:01:39.000Z,9.1
2022-10-20T12:05:12.000Z,10.4
2022-10-20T12:08:44.000Z,10.1
2022-10-20T12:12:17.000Z,10.5
2022-10-20T12:15:50.000Z,9.2
2022-10-20T12:19:23.000Z,9.7
2022-10-20T12:22:55.000Z,10.8
2022-10-20T12:26:28.000Z,10.1
2022-10-20T12:29:21.000Z,10.2
2022-10-20T12:32:54.000Z,10.6
2022-10-20T12:36:26.000Z,10.2
2022-10-20T12:39:59.000Z,10
2022-10-20T12:43:31.000Z,9.9
2022-10-20T12:47:04.000Z,10.5
2022-10-20T12:50:37.000Z,10.5
2022-10-20T12:54:10.000Z,10.2
2022-10-20T12:57:42.000Z,9.4
2022-10-20T13:01:15.000Z,10.2
2022-10-20T13:04:48.000Z,10.8
2022-10-20T13:07:39.000Z,10.3
2022-10-20T13:11:12.000Z,10.8
2022-10-20T13:14:45.000Z,9.9
2022-10-20T13:18:18.000Z,10.4
2022-10-20T13:21:50.000Z,9.2
2022-10-20T13:25:23.000Z,9.3
2022-10-20T13:28:55.000Z,9.7
2022-10-20T13:32:28.000Z,10.7
2022-10-20T13:38:14.000Z,11.4
2022-10-20T13:41:47.000Z,9.4
2022-10-20T13:45:20.000Z,11
2022-10-20T13:48:05.000Z,10.5
2022-10-20T13:51:38.000Z,10
2022-10-20T13:55:10.000Z,10
2022-10-20T13:58:43.000Z,9.9
2022-10-20T14:02:15.000Z,11
2022-10-20T14:05:48.000Z,11.7
2022-10-20T14:09:21.000Z,11.1
2022-10-20T14:12:53.000Z,10.5
2022-10-20T14:16:26.000Z,11
2022-10-20T14:19:59.000Z,11.2
2022-10-20T14:23:31.000Z,12.3
2022-10-20T14:26:22.000Z,10.9
2022-10-20T14:29:55.000Z,11.9
2022-10-20T14:33:27.000Z,13.4
2022-10-20T14:37:00.000Z,10.7
2022-10-20T14:40:33.000Z,13.1
2022-10-20T14:44:05.000Z,13
2022-10-20T14:47:54.000Z,11.9
2022-10-20T14:51:27.000Z,13.9
2022-10-20T14:54:59.000Z,13.2
2022-10-20T14:58:32.000Z,12.2
2022-10-20T15:02:05.000Z,12.4
2022-10-20T15:04:56.000Z,12.8
2022-10-20T15:08:28.000Z,12
2022-10-20T15:12:04.000Z,12.8
2022-10-20T15:15:36.000Z,12.2
2022-10-20T15:19:09.000Z,12
2022-10-20T15:22:42.000Z,12.3
2022-10-20T15:26:19.000Z,13
2022-10-20T15:29:52.000Z,14.3
2022-10-20T15:33:25.000Z,16.9
2022-10-20T15:36:57.000Z,13.4
2022-10-20T15:40:30.000Z,14.1
2022-10-20T15:43:21.000Z,13.3
2022-10-20T15:46:54.000Z,14.3
2022-10-20T15:50:26.000Z,15.5
2022-10-20T15:53:59.000Z,14
2022-10-20T15:57:31.000Z,14
2022-10-20T16:01:04.000Z,16.3
2022-10-20T16:04:38.000Z,15.4
2022-10-20T16:08:10.000Z,17.9
2022-10-20T16:11:43.000Z,18.9
2022-10-20T16:15:16.000Z,16.5
2022-10-20T16:18:58.000Z,17
2022-10-20T16:21:50.000Z,15.7
2022-10-20T16:25:22.000Z,15.8
2022-10-20T16:28:55.000Z,16
2022-10-20T16:32:28.000Z,17
2022-10-20T16:39:33.000Z,18.3
2022-10-20T16:43:06.000Z,16.1
2022-10-20T16:46:38.000Z,15.2
2022-10-20T16:50:11.000Z,14.9
2022-10-20T16:53:44.000Z,16
2022-10-20T16:57:16.000Z,17.1
2022-10-20T17:00:07.000Z,17.5
2022-10-20T17:03:40.000Z,17.3
2022-10-20T17:07:12.000Z,18.5
2022-10-20T17:10:45.000Z,18.7
2022-10-20T17:14:18.000Z,19.6
2022-10-20T17:17:50.000Z,21.6
2022-10-20T17:21:23.000Z,19.7
2022-10-20T17:24:55.000Z,19.1
2022-10-20T17:28:28.000Z,22
2022-10-20T17:32:01.000Z,20.1
2022-10-20T17:35:33.000Z,19.5
2022-10-20T17:38:24.000Z,21
2022-10-20T17:41:57.000Z,22.9
2022-10-20T17:45:30.000Z,25.2
2022-10-20T17:49:03.000Z,27.4
2022-10-20T17:52:36.000Z,22.9
2022-10-20T17:56:08.000Z,21.4
2022-10-20T17:59:41.000Z,20.4
2022-10-20T18:03:20.000Z,20.1
2022-10-20T18:06:53.000Z,25.6
2022-10-20T18:10:25.000Z,28.6
2022-10-20T18:13:58.000Z,22.7
2022-10-20T18:16:49.000Z,22.9
2022-10-20T18:20:22.000Z,23
2022-10-20T18:23:59.000Z,22.2
2022-10-20T18:27:31.000Z,28.9
2022-10-20T18:31:04.000Z,24.9
2022-10-20T18:34:38.000Z,23.3
2022-10-20T18:38:10.000Z,25.4
2022-10-20T18:41:43.000Z,22.9
2022-10-20T18:45:15.000Z,23.1
2022-10-20T18:48:51.000Z,23.2
2022-10-20T18:52:23.000Z,22.6
2022-10-20T18:55:14.000Z,23.6
2022-10-20T18:58:47.000Z,21.8
2022-10-20T19:02:20.000Z,21
2022-10-20T19:05:52.000Z,20.6
2022-10-20T19:09:25.000Z,19.8
2022-10-20T19:12:57.000Z,19.4
2022-10-20T19:16:30.000Z,22
2022-10-20T19:20:03.000Z,20.5
2022-10-20T19:23:35.000Z,19.6
2022-10-20T19:27:08.000Z,19.9
2022-10-20T19:30:57.000Z,21.7
2022-10-20T19:33:57.000Z,25.1
2022-10-20T19:37:30.000Z,26.4
2022-10-20T19:41:02.000Z,22.7
2022-10-20T19:44:36.000Z,23
2022-10-20T19:48:08.000Z,22.9
2022-10-20T19:51:41.000Z,21.4
2022-10-20T19:55:13.000Z,21.5
2022-10-20T19:58:46.000Z,20.7
2022-10-20T20:02:19.000Z,22.6
2022-10-20T20:05:51.000Z,22.6
2022-10-20T20:09:24.000Z,24.6
2022-10-20T20:12:15.000Z,27.6
2022-10-20T20:15:48.000Z,26.8
2022-10-20T20:19:21.000Z,25.9
2022-10-20T20:22:53.000Z,26.6
2022-10-20T20:26:26.000Z,26.9
2022-10-20T20:29:58.000Z,26.8
2022-10-20T20:33:31.000Z,27.7
2022-10-20T20:37:04.000Z,27.9
2022-10-20T20:40:36.000Z,25
2022-10-20T20:44:09.000Z,24.5
2022-10-20T20:47:43.000Z,22.1
2022-10-20T20:50:34.000Z,24.5
2022-10-20T20:54:07.000Z,22.5
2022-10-20T20:57:39.000Z,22.8
2022-10-20T21:01:12.000Z,23
2022-10-20T21:04:45.000Z,22
2022-10-20T21:08:17.000Z,22.8
2022-10-20T21:11:50.000Z,22.4
2022-10-20T21:15:23.000Z,20.7
2022-10-20T21:18:56.000Z,21.3
2022-10-20T21:22:28.000Z,22
2022-10-20T21:26:01.000Z,20.7
2022-10-20T21:28:53.000Z,20.8
2022-10-20T21:32:25.000Z,20.6
2022-10-20T21:35:58.000Z,21.7
2022-10-20T21:39:31.000Z,21.4
2022-10-20T21:43:03.000Z,21.2
2022-10-20T21:46:36.000Z,20.9
2022-10-20T21:50:09.000Z,21.2
2022-10-20T21:53:41.000Z,21.9
2022-10-20T21:57:14.000Z,21.3
2022-10-20T22:00:46.000Z,21.3
2022-10-20T22:04:19.000Z,21.7
2022-10-20T22:07:10.000Z,21.9
2022-10-20T22:10:43.000Z,23.5
2022-10-20T22:14:15.000Z,23.3
2022-10-20T22:17:48.000Z,22.4
2022-10-20T22:21:21.000Z,23.1
2022-10-20T22:24:53.000Z,23.4
2022-10-20T22:28:26.000Z,23.7
2022-10-20T22:31:58.000Z,23.9
2022-10-20T22:35:31.000Z,23.3
2022-10-20T22:42:36.000Z,22.5
2022-10-20T22:45:27.000Z,22.2
2022-10-20T22:49:00.000Z,23.1
2022-10-20T22:52:32.000Z,22.6
2022-10-20T22:56:06.000Z,21.7
2022-10-20T22:59:38.000Z,22.4
2022-10-20T23:03:11.000Z,23.7
2022-10-20T23:06:43.000Z,22.5
2022-10-20T23:10:16.000Z,21.8
2022-10-20T23:13:49.000Z,22.2
2022-10-20T23:17:21.000Z,21.6
2022-10-20T23:20:54.000Z,23.1
2022-10-20T23:23:45.000Z,23.7
2022-10-20T23:27:18.000Z,25.4
2022-10-20T23:30:50.000Z,22.3
2022-10-20T23:34:23.000Z,23.4
2022-10-20T23:37:56.000Z,23.8
2022-10-20T23:41:28.000Z,23.1
2022-10-20T23:45:01.000Z,23.7
2022-10-20T23:48:33.000Z,21.9
2022-10-20T23:52:06.000Z,20.9
2022-10-20T23:55:38.000Z,24
2022-10-20T23:59:11.000Z,23
